Weather at Hannover Airport

Public forecast

Using degrees Celsius for public forecast. Weather courtesy of forecast.io.

Current aviation weather report (METAR) for Hannover Airport

Retrieved 2020/10/21 01:20 UTC (29 minutes ago):

EDDV 210120Z VRB02KT 9999 -RA SCT045 12/11 Q1008

Aviation forecast (TAF) for Hannover Airport

Retrieved 2020-10-21 00:27 UTC (1 hour ago):

TAF EDDV 202300Z 2100/2124 17005KT 9999 BKN035 BECMG 2108/2110 18010KT TEMPO 2113/2119 22015G25KT